This demonstration page uses our WeatherBlox Daily Observations layout. Learn more.

39.29038, -76.61219

Hourly Observations for August 19, 2019

Temp ( °F °C ) Dew Point ( °F °C ) Humidity (%) Winds ( mph kmh ) Pressure ( in mb ) Visibility ( mi km ) Precip ( " mm )
12:54 am 00:54 undefined 80 26.7 71 21.7 74 74 undefined N/A 29.97 1015 N/A 0 0
1:54 am 01:54 undefined 77 25 68 20 74 74 undefined N/A 29.94 1014 N/A 0 0
2:54 am 02:54 undefined 77 25 68 20 74 74 undefined N/A 29.94 1014 N/A 0 0
3:54 am 03:54 undefined 78 25.6 67 19.4 69 69 undefined N/A 29.94 1014 N/A 0 0
4:54 am 04:54 undefined 77 25 68 20 74 74 undefined N/A 29.94 1014 N/A 0 0
5:54 am 05:54 undefined 76 24.4 69 20.6 79 79 undefined N/A 29.97 1015 N/A 0 0
6:54 am 06:54 undefined 76 24.4 70 21.1 82 82 undefined N/A 29.97 1015 N/A 0 0
7:54 am 07:54 undefined 79 26.1 72 22.2 79 79 undefined N/A 30 1016 N/A 0 0
8:54 am 08:54 undefined 82 27.8 73 22.8 74 74 undefined N/A 30 1016 N/A 0 0
9:54 am 09:54 undefined 84 28.9 73 22.8 70 70 undefined N/A 30 1016 N/A 0 0
10:54 am 10:54 undefined 88 31.1 72 22.2 59 59 undefined N/A 30 1016 N/A 0 0
11:54 am 11:54 undefined 92 33.3 74 23.3 56 56 undefined N/A 30 1016 N/A 0 0
12:54 pm 12:54 undefined 95 35 74 23.3 51 51 undefined N/A 30 1016 N/A 0 0
1:54 pm 13:54 undefined 95 35 68 20 41 41 undefined N/A 29.94 1014 N/A 0 0
2:54 pm 14:54 undefined 96 35.6 71 21.7 44 44 undefined N/A 29.94 1014 N/A 0 0
3:54 pm 15:54 undefined 95 35 69 20.6 43 43 undefined N/A 29.94 1014 N/A 0 0
4:54 pm 16:54 undefined 94 34.4 68 20 43 43 undefined N/A 29.91 1013 N/A 0 0
5:54 pm 17:54 undefined 93 33.9 64 17.8 38 38 undefined N/A 29.91 1013 N/A 0 0
6:54 pm 18:54 undefined 92 33.3 66 18.9 43 43 undefined N/A 29.91 1013 N/A 0 0
7:54 pm 19:54 undefined 91 32.8 67 19.4 45 45 undefined N/A 29.94 1014 N/A 0 0
8:54 pm 20:54 undefined 90 32.2 68 20 48 48 undefined N/A 29.97 1015 N/A 0 0
9:54 pm 21:54 undefined 86 30 71 21.7 61 61 undefined N/A 30 1016 N/A 0 0
10:54 pm 22:54 undefined 86 30 72 22.2 63 63 undefined N/A 30 1016 N/A 0 0
11:54 pm 23:54 undefined 85 29.4 72 22.2 65 65 undefined N/A 30 1016 N/A 0 0

Powered by AerisWeather